sensor_id;sensor_type;location;lat;lon;timestamp;P1;durP1;ratioP1;P2;durP2;ratioP2
23658;SDS011;12006;42.666;23.326;2024-03-22T00:02:16;7.93;;;4.03;;
23658;SDS011;12006;42.666;23.326;2024-03-22T00:04:42;8.57;;;4.37;;
23658;SDS011;12006;42.666;23.326;2024-03-22T00:07:07;7.83;;;4.40;;
23658;SDS011;12006;42.666;23.326;2024-03-22T00:09:32;7.83;;;4.40;;
23658;SDS011;12006;42.666;23.326;2024-03-22T00:11:58;9.83;;;4.43;;
23658;SDS011;12006;42.666;23.326;2024-03-22T00:14:23;12.53;;;4.43;;
23658;SDS011;12006;42.666;23.326;2024-03-22T00:16:49;8.47;;;4.67;;
23658;SDS011;12006;42.666;23.326;2024-03-22T00:19:14;10.53;;;5.23;;
23658;SDS011;12006;42.666;23.326;2024-03-22T00:21:39;6.67;;;5.10;;
23658;SDS011;12006;42.666;23.326;2024-03-22T00:24:04;7.40;;;4.53;;
23658;SDS011;12006;42.666;23.326;2024-03-22T00:26:30;9.00;;;4.47;;
23658;SDS011;12006;42.666;23.326;2024-03-22T00:28:55;10.87;;;4.83;;
23658;SDS011;12006;42.666;23.326;2024-03-22T00:31:23;10.33;;;5.40;;
23658;SDS011;12006;42.666;23.326;2024-03-22T00:33:48;11.63;;;5.03;;
23658;SDS011;12006;42.666;23.326;2024-03-22T00:36:13;8.20;;;4.77;;
23658;SDS011;12006;42.666;23.326;2024-03-22T00:38:38;8.47;;;4.90;;
23658;SDS011;12006;42.666;23.326;2024-03-22T00:41:04;10.27;;;4.33;;
23658;SDS011;12006;42.666;23.326;2024-03-22T00:43:29;7.67;;;4.77;;
23658;SDS011;12006;42.666;23.326;2024-03-22T00:45:54;10.67;;;5.03;;
23658;SDS011;12006;42.666;23.326;2024-03-22T00:48:19;10.47;;;4.17;;
23658;SDS011;12006;42.666;23.326;2024-03-22T00:50:45;8.63;;;5.13;;
23658;SDS011;12006;42.666;23.326;2024-03-22T00:53:10;7.93;;;4.80;;
23658;SDS011;12006;42.666;23.326;2024-03-22T00:55:35;7.10;;;4.83;;
23658;SDS011;12006;42.666;23.326;2024-03-22T00:58:01;9.67;;;6.17;;
23658;SDS011;12006;42.666;23.326;2024-03-22T01:00:27;10.23;;;5.33;;
23658;SDS011;12006;42.666;23.326;2024-03-22T01:02:52;9.97;;;5.77;;
23658;SDS011;12006;42.666;23.326;2024-03-22T01:05:18;13.13;;;6.20;;
23658;SDS011;12006;42.666;23.326;2024-03-22T01:07:43;13.20;;;6.73;;
23658;SDS011;12006;42.666;23.326;2024-03-22T01:10:09;9.97;;;6.00;;
23658;SDS011;12006;42.666;23.326;2024-03-22T01:12:34;11.73;;;6.77;;
23658;SDS011;12006;42.666;23.326;2024-03-22T01:15:00;12.70;;;6.27;;
23658;SDS011;12006;42.666;23.326;2024-03-22T01:17:25;12.40;;;6.53;;
23658;SDS011;12006;42.666;23.326;2024-03-22T01:19:50;11.57;;;5.67;;
23658;SDS011;12006;42.666;23.326;2024-03-22T01:22:16;14.40;;;5.83;;
23658;SDS011;12006;42.666;23.326;2024-03-22T01:24:42;12.53;;;5.70;;
23658;SDS011;12006;42.666;23.326;2024-03-22T01:27:08;10.67;;;6.47;;
23658;SDS011;12006;42.666;23.326;2024-03-22T01:29:33;11.83;;;6.37;;
23658;SDS011;12006;42.666;23.326;2024-03-22T01:31:58;10.33;;;6.43;;
23658;SDS011;12006;42.666;23.326;2024-03-22T01:34:24;11.83;;;7.17;;
23658;SDS011;12006;42.666;23.326;2024-03-22T01:36:49;13.03;;;8.23;;
23658;SDS011;12006;42.666;23.326;2024-03-22T01:39:15;11.70;;;7.20;;
23658;SDS011;12006;42.666;23.326;2024-03-22T01:41:40;15.63;;;7.87;;
23658;SDS011;12006;42.666;23.326;2024-03-22T01:44:06;10.73;;;6.90;;
23658;SDS011;12006;42.666;23.326;2024-03-22T01:46:31;10.17;;;6.70;;
23658;SDS011;12006;42.666;23.326;2024-03-22T01:48:56;9.07;;;6.33;;
23658;SDS011;12006;42.666;23.326;2024-03-22T01:51:21;15.40;;;6.47;;
23658;SDS011;12006;42.666;23.326;2024-03-22T01:53:47;8.73;;;5.70;;
23658;SDS011;12006;42.666;23.326;2024-03-22T01:56:12;8.43;;;5.60;;
23658;SDS011;12006;42.666;23.326;2024-03-22T01:58:37;9.03;;;5.97;;
23658;SDS011;12006;42.666;23.326;2024-03-22T02:01:03;11.80;;;6.10;;
23658;SDS011;12006;42.666;23.326;2024-03-22T02:03:28;9.10;;;5.63;;
23658;SDS011;12006;42.666;23.326;2024-03-22T02:05:54;10.53;;;5.80;;
23658;SDS011;12006;42.666;23.326;2024-03-22T02:08:19;9.20;;;5.87;;
23658;SDS011;12006;42.666;23.326;2024-03-22T02:10:44;12.47;;;5.77;;
23658;SDS011;12006;42.666;23.326;2024-03-22T02:13:10;9.60;;;6.00;;
23658;SDS011;12006;42.666;23.326;2024-03-22T02:15:35;9.60;;;6.43;;
23658;SDS011;12006;42.666;23.326;2024-03-22T02:18:00;7.67;;;5.60;;
23658;SDS011;12006;42.666;23.326;2024-03-22T02:20:26;10.40;;;6.10;;
23658;SDS011;12006;42.666;23.326;2024-03-22T02:22:51;10.67;;;6.60;;
23658;SDS011;12006;42.666;23.326;2024-03-22T02:25:16;11.50;;;6.30;;
23658;SDS011;12006;42.666;23.326;2024-03-22T02:27:41;11.40;;;6.03;;
23658;SDS011;12006;42.666;23.326;2024-03-22T02:30:07;9.23;;;5.20;;
23658;SDS011;12006;42.666;23.326;2024-03-22T02:32:32;12.03;;;6.47;;
23658;SDS011;12006;42.666;23.326;2024-03-22T02:34:57;10.80;;;6.63;;
23658;SDS011;12006;42.666;23.326;2024-03-22T02:37:22;8.53;;;5.97;;
23658;SDS011;12006;42.666;23.326;2024-03-22T02:39:48;11.70;;;6.53;;
23658;SDS011;12006;42.666;23.326;2024-03-22T02:42:13;10.60;;;6.00;;
23658;SDS011;12006;42.666;23.326;2024-03-22T02:44:38;11.07;;;6.67;;
23658;SDS011;12006;42.666;23.326;2024-03-22T02:47:08;8.20;;;6.37;;
23658;SDS011;12006;42.666;23.326;2024-03-22T02:49:33;12.17;;;6.80;;
23658;SDS011;12006;42.666;23.326;2024-03-22T02:51:58;10.13;;;6.03;;
23658;SDS011;12006;42.666;23.326;2024-03-22T02:54:23;9.50;;;6.20;;
23658;SDS011;12006;42.666;23.326;2024-03-22T02:56:48;15.73;;;6.03;;
23658;SDS011;12006;42.666;23.326;2024-03-22T02:59:14;11.10;;;7.00;;
23658;SDS011;12006;42.666;23.326;2024-03-22T03:01:39;13.03;;;6.47;;
23658;SDS011;12006;42.666;23.326;2024-03-22T03:04:04;9.73;;;6.00;;
23658;SDS011;12006;42.666;23.326;2024-03-22T03:06:29;12.80;;;7.37;;
23658;SDS011;12006;42.666;23.326;2024-03-22T03:08:54;12.20;;;6.83;;
23658;SDS011;12006;42.666;23.326;2024-03-22T03:11:20;12.13;;;6.80;;
23658;SDS011;12006;42.666;23.326;2024-03-22T03:13:45;15.30;;;7.47;;
23658;SDS011;12006;42.666;23.326;2024-03-22T03:16:10;9.83;;;7.07;;
23658;SDS011;12006;42.666;23.326;2024-03-22T03:18:35;11.50;;;7.20;;
23658;SDS011;12006;42.666;23.326;2024-03-22T03:21:01;8.93;;;6.13;;
23658;SDS011;12006;42.666;23.326;2024-03-22T03:23:26;10.13;;;6.43;;
23658;SDS011;12006;42.666;23.326;2024-03-22T03:25:51;11.83;;;7.43;;
23658;SDS011;12006;42.666;23.326;2024-03-22T03:28:16;12.47;;;6.20;;
23658;SDS011;12006;42.666;23.326;2024-03-22T03:30:43;8.73;;;6.40;;
23658;SDS011;12006;42.666;23.326;2024-03-22T03:33:08;13.27;;;7.70;;
23658;SDS011;12006;42.666;23.326;2024-03-22T03:35:33;16.43;;;9.23;;
23658;SDS011;12006;42.666;23.326;2024-03-22T03:37:59;18.00;;;10.23;;
23658;SDS011;12006;42.666;23.326;2024-03-22T03:40:24;13.13;;;9.73;;
23658;SDS011;12006;42.666;23.326;2024-03-22T03:42:52;14.53;;;9.67;;
23658;SDS011;12006;42.666;23.326;2024-03-22T03:45:18;13.60;;;8.67;;
23658;SDS011;12006;42.666;23.326;2024-03-22T03:47:43;12.00;;;8.27;;
23658;SDS011;12006;42.666;23.326;2024-03-22T03:50:09;15.17;;;8.17;;
23658;SDS011;12006;42.666;23.326;2024-03-22T03:52:34;14.10;;;7.87;;
23658;SDS011;12006;42.666;23.326;2024-03-22T03:54:59;13.87;;;7.17;;
23658;SDS011;12006;42.666;23.326;2024-03-22T03:57:25;12.13;;;7.67;;
23658;SDS011;12006;42.666;23.326;2024-03-22T03:59:50;12.53;;;8.37;;
23658;SDS011;12006;42.666;23.326;2024-03-22T04:02:15;16.23;;;7.83;;
23658;SDS011;12006;42.666;23.326;2024-03-22T04:04:40;11.53;;;8.37;;
23658;SDS011;12006;42.666;23.326;2024-03-22T04:07:05;13.07;;;7.43;;
23658;SDS011;12006;42.666;23.326;2024-03-22T04:09:31;14.13;;;8.30;;
23658;SDS011;12006;42.666;23.326;2024-03-22T04:11:57;17.53;;;9.33;;
23658;SDS011;12006;42.666;23.326;2024-03-22T04:14:23;11.87;;;7.70;;
23658;SDS011;12006;42.666;23.326;2024-03-22T04:16:49;16.53;;;8.90;;
23658;SDS011;12006;42.666;23.326;2024-03-22T04:19:14;16.37;;;9.13;;
23658;SDS011;12006;42.666;23.326;2024-03-22T04:21:39;13.00;;;7.60;;
23658;SDS011;12006;42.666;23.326;2024-03-22T04:24:04;23.30;;;10.53;;
23658;SDS011;12006;42.666;23.326;2024-03-22T04:26:30;16.33;;;9.37;;
23658;SDS011;12006;42.666;23.326;2024-03-22T04:28:55;17.80;;;8.27;;
23658;SDS011;12006;42.666;23.326;2024-03-22T04:31:20;13.77;;;7.40;;
23658;SDS011;12006;42.666;23.326;2024-03-22T04:33:45;16.77;;;9.53;;
23658;SDS011;12006;42.666;23.326;2024-03-22T04:36:10;15.93;;;7.37;;
23658;SDS011;12006;42.666;23.326;2024-03-22T04:38:36;14.27;;;7.87;;
23658;SDS011;12006;42.666;23.326;2024-03-22T04:41:01;13.73;;;7.10;;
23658;SDS011;12006;42.666;23.326;2024-03-22T04:43:27;9.70;;;6.70;;
23658;SDS011;12006;42.666;23.326;2024-03-22T04:45:52;9.63;;;7.03;;
23658;SDS011;12006;42.666;23.326;2024-03-22T04:48:19;13.90;;;7.67;;
23658;SDS011;12006;42.666;23.326;2024-03-22T04:50:45;13.03;;;7.40;;
23658;SDS011;12006;42.666;23.326;2024-03-22T04:53:10;13.40;;;6.53;;
23658;SDS011;12006;42.666;23.326;2024-03-22T04:55:35;15.53;;;8.00;;
23658;SDS011;12006;42.666;23.326;2024-03-22T04:58:01;11.13;;;7.43;;
23658;SDS011;12006;42.666;23.326;2024-03-22T05:00:26;15.93;;;7.83;;
23658;SDS011;12006;42.666;23.326;2024-03-22T05:02:52;21.37;;;8.13;;
23658;SDS011;12006;42.666;23.326;2024-03-22T05:05:17;13.80;;;6.30;;
23658;SDS011;12006;42.666;23.326;2024-03-22T05:07:42;10.27;;;7.27;;
23658;SDS011;12006;42.666;23.326;2024-03-22T05:10:08;9.73;;;6.27;;
23658;SDS011;12006;42.666;23.326;2024-03-22T05:12:34;12.80;;;7.77;;
23658;SDS011;12006;42.666;23.326;2024-03-22T05:14:59;9.47;;;5.83;;
23658;SDS011;12006;42.666;23.326;2024-03-22T05:17:24;15.70;;;8.00;;
23658;SDS011;12006;42.666;23.326;2024-03-22T05:19:50;13.70;;;6.07;;
23658;SDS011;12006;42.666;23.326;2024-03-22T05:22:15;12.60;;;6.70;;
23658;SDS011;12006;42.666;23.326;2024-03-22T05:24:40;11.47;;;6.67;;
23658;SDS011;12006;42.666;23.326;2024-03-22T05:27:05;11.03;;;6.37;;
23658;SDS011;12006;42.666;23.326;2024-03-22T05:29:31;13.77;;;6.17;;
23658;SDS011;12006;42.666;23.326;2024-03-22T05:31:56;10.83;;;5.80;;
23658;SDS011;12006;42.666;23.326;2024-03-22T05:34:22;9.00;;;5.37;;
23658;SDS011;12006;42.666;23.326;2024-03-22T05:36:47;6.67;;;4.67;;
23658;SDS011;12006;42.666;23.326;2024-03-22T05:39:12;8.70;;;4.30;;
23658;SDS011;12006;42.666;23.326;2024-03-22T05:41:38;5.30;;;4.30;;
23658;SDS011;12006;42.666;23.326;2024-03-22T05:44:04;6.10;;;4.60;;
23658;SDS011;12006;42.666;23.326;2024-03-22T05:46:29;6.77;;;3.97;;
23658;SDS011;12006;42.666;23.326;2024-03-22T05:48:55;8.40;;;4.70;;
23658;SDS011;12006;42.666;23.326;2024-03-22T05:51:20;6.53;;;4.27;;
23658;SDS011;12006;42.666;23.326;2024-03-22T05:53:46;12.13;;;5.57;;
23658;SDS011;12006;42.666;23.326;2024-03-22T05:56:11;9.33;;;5.67;;
23658;SDS011;12006;42.666;23.326;2024-03-22T05:58:36;9.43;;;5.90;;
23658;SDS011;12006;42.666;23.326;2024-03-22T06:01:02;9.17;;;5.80;;
23658;SDS011;12006;42.666;23.326;2024-03-22T06:03:28;10.27;;;5.90;;
23658;SDS011;12006;42.666;23.326;2024-03-22T06:05:53;9.57;;;5.77;;
23658;SDS011;12006;42.666;23.326;2024-03-22T06:08:21;10.63;;;6.17;;
23658;SDS011;12006;42.666;23.326;2024-03-22T06:10:46;9.03;;;5.73;;
23658;SDS011;12006;42.666;23.326;2024-03-22T06:13:12;10.70;;;5.87;;
23658;SDS011;12006;42.666;23.326;2024-03-22T06:15:37;12.63;;;6.20;;
23658;SDS011;12006;42.666;23.326;2024-03-22T06:18:02;8.33;;;5.93;;
23658;SDS011;12006;42.666;23.326;2024-03-22T06:20:27;10.63;;;6.17;;
23658;SDS011;12006;42.666;23.326;2024-03-22T06:22:52;8.70;;;5.60;;
23658;SDS011;12006;42.666;23.326;2024-03-22T06:25:18;11.17;;;6.30;;
23658;SDS011;12006;42.666;23.326;2024-03-22T06:27:43;12.03;;;6.63;;
23658;SDS011;12006;42.666;23.326;2024-03-22T06:30:08;12.17;;;6.00;;
23658;SDS011;12006;42.666;23.326;2024-03-22T06:32:34;10.30;;;5.60;;
23658;SDS011;12006;42.666;23.326;2024-03-22T06:34:59;8.93;;;6.17;;
23658;SDS011;12006;42.666;23.326;2024-03-22T06:37:24;8.37;;;5.37;;
23658;SDS011;12006;42.666;23.326;2024-03-22T06:39:49;8.00;;;6.07;;
23658;SDS011;12006;42.666;23.326;2024-03-22T06:42:15;9.87;;;5.50;;
23658;SDS011;12006;42.666;23.326;2024-03-22T06:44:40;8.90;;;5.87;;
23658;SDS011;12006;42.666;23.326;2024-03-22T06:47:05;11.50;;;6.57;;
23658;SDS011;12006;42.666;23.326;2024-03-22T06:49:30;8.33;;;6.03;;
23658;SDS011;12006;42.666;23.326;2024-03-22T06:51:56;12.63;;;6.33;;
23658;SDS011;12006;42.666;23.326;2024-03-22T06:54:21;8.30;;;5.40;;
23658;SDS011;12006;42.666;23.326;2024-03-22T06:56:47;8.83;;;5.93;;
23658;SDS011;12006;42.666;23.326;2024-03-22T06:59:12;6.80;;;5.53;;
23658;SDS011;12006;42.666;23.326;2024-03-22T07:01:37;7.80;;;5.27;;
23658;SDS011;12006;42.666;23.326;2024-03-22T07:04:02;11.63;;;6.07;;
23658;SDS011;12006;42.666;23.326;2024-03-22T07:06:27;8.80;;;5.53;;
23658;SDS011;12006;42.666;23.326;2024-03-22T07:08:53;11.07;;;5.30;;
23658;SDS011;12006;42.666;23.326;2024-03-22T07:11:18;6.80;;;5.07;;
23658;SDS011;12006;42.666;23.326;2024-03-22T07:13:43;8.00;;;4.43;;
23658;SDS011;12006;42.666;23.326;2024-03-22T07:16:08;6.53;;;5.43;;
23658;SDS011;12006;42.666;23.326;2024-03-22T07:18:34;7.27;;;4.23;;
23658;SDS011;12006;42.666;23.326;2024-03-22T07:20:59;9.83;;;4.50;;
23658;SDS011;12006;42.666;23.326;2024-03-22T07:23:26;7.07;;;4.47;;
23658;SDS011;12006;42.666;23.326;2024-03-22T07:25:51;5.10;;;4.40;;
23658;SDS011;12006;42.666;23.326;2024-03-22T07:28:16;4.70;;;3.63;;
23658;SDS011;12006;42.666;23.326;2024-03-22T07:30:42;6.63;;;4.17;;
23658;SDS011;12006;42.666;23.326;2024-03-22T07:33:07;5.23;;;3.93;;
23658;SDS011;12006;42.666;23.326;2024-03-22T07:35:34;7.53;;;4.37;;
23658;SDS011;12006;42.666;23.326;2024-03-22T07:37:59;2.83;;;2.60;;
23658;SDS011;12006;42.666;23.326;2024-03-22T07:40:24;4.07;;;3.27;;
23658;SDS011;12006;42.666;23.326;2024-03-22T07:42:50;3.97;;;3.10;;
23658;SDS011;12006;42.666;23.326;2024-03-22T07:45:15;3.47;;;2.67;;
23658;SDS011;12006;42.666;23.326;2024-03-22T07:47:40;3.90;;;2.10;;
23658;SDS011;12006;42.666;23.326;2024-03-22T07:50:07;3.20;;;2.67;;
23658;SDS011;12006;42.666;23.326;2024-03-22T07:52:33;2.87;;;2.57;;
23658;SDS011;12006;42.666;23.326;2024-03-22T07:54:58;4.17;;;2.43;;
23658;SDS011;12006;42.666;23.326;2024-03-22T07:57:24;3.67;;;2.57;;
23658;SDS011;12006;42.666;23.326;2024-03-22T07:59:49;4.23;;;2.90;;
23658;SDS011;12006;42.666;23.326;2024-03-22T08:02:14;5.10;;;3.43;;
23658;SDS011;12006;42.666;23.326;2024-03-22T08:04:39;3.50;;;3.10;;
23658;SDS011;12006;42.666;23.326;2024-03-22T08:07:05;4.00;;;3.23;;
23658;SDS011;12006;42.666;23.326;2024-03-22T08:09:30;4.90;;;2.90;;
23658;SDS011;12006;42.666;23.326;2024-03-22T08:11:55;4.57;;;3.23;;
23658;SDS011;12006;42.666;23.326;2024-03-22T08:14:21;4.53;;;3.27;;
23658;SDS011;12006;42.666;23.326;2024-03-22T08:16:46;5.50;;;3.00;;
23658;SDS011;12006;42.666;23.326;2024-03-22T08:19:11;4.90;;;3.63;;
23658;SDS011;12006;42.666;23.326;2024-03-22T08:21:36;3.80;;;3.00;;
23658;SDS011;12006;42.666;23.326;2024-03-22T08:24:02;3.70;;;2.80;;
23658;SDS011;12006;42.666;23.326;2024-03-22T08:26:27;4.50;;;3.27;;
23658;SDS011;12006;42.666;23.326;2024-03-22T08:28:52;4.40;;;3.03;;
23658;SDS011;12006;42.666;23.326;2024-03-22T08:31:17;5.33;;;2.80;;
23658;SDS011;12006;42.666;23.326;2024-03-22T08:33:46;5.30;;;3.70;;
23658;SDS011;12006;42.666;23.326;2024-03-22T08:36:11;4.20;;;3.27;;
23658;SDS011;12006;42.666;23.326;2024-03-22T08:38:37;3.87;;;3.10;;
23658;SDS011;12006;42.666;23.326;2024-03-22T08:41:02;3.27;;;2.73;;
23658;SDS011;12006;42.666;23.326;2024-03-22T08:43:28;3.00;;;2.70;;
23658;SDS011;12006;42.666;23.326;2024-03-22T08:45:54;3.70;;;2.80;;
23658;SDS011;12006;42.666;23.326;2024-03-22T08:48:19;3.13;;;2.57;;
23658;SDS011;12006;42.666;23.326;2024-03-22T08:50:44;3.70;;;2.90;;
23658;SDS011;12006;42.666;23.326;2024-03-22T08:53:10;3.83;;;2.80;;
23658;SDS011;12006;42.666;23.326;2024-03-22T08:55:35;3.10;;;2.73;;
23658;SDS011;12006;42.666;23.326;2024-03-22T08:58:00;3.47;;;2.60;;
23658;SDS011;12006;42.666;23.326;2024-03-22T09:00:26;3.20;;;2.70;;
23658;SDS011;12006;42.666;23.326;2024-03-22T09:02:51;5.23;;;3.67;;
23658;SDS011;12006;42.666;23.326;2024-03-22T09:05:17;4.33;;;3.13;;
23658;SDS011;12006;42.666;23.326;2024-03-22T09:07:43;3.73;;;3.07;;
23658;SDS011;12006;42.666;23.326;2024-03-22T09:10:08;4.43;;;3.27;;
23658;SDS011;12006;42.666;23.326;2024-03-22T09:12:34;3.73;;;2.60;;
23658;SDS011;12006;42.666;23.326;2024-03-22T09:14:59;4.03;;;3.00;;
23658;SDS011;12006;42.666;23.326;2024-03-22T09:17:25;3.73;;;2.60;;
23658;SDS011;12006;42.666;23.326;2024-03-22T09:19:51;3.30;;;2.93;;
23658;SDS011;12006;42.666;23.326;2024-03-22T09:22:16;2.80;;;2.20;;
23658;SDS011;12006;42.666;23.326;2024-03-22T09:24:41;3.70;;;2.60;;
23658;SDS011;12006;42.666;23.326;2024-03-22T09:27:07;4.10;;;2.80;;
23658;SDS011;12006;42.666;23.326;2024-03-22T09:29:35;3.23;;;2.33;;
23658;SDS011;12006;42.666;23.326;2024-03-22T09:32:01;3.10;;;2.50;;
23658;SDS011;12006;42.666;23.326;2024-03-22T09:34:27;3.03;;;2.20;;
23658;SDS011;12006;42.666;23.326;2024-03-22T09:36:52;2.97;;;2.00;;
23658;SDS011;12006;42.666;23.326;2024-03-22T09:39:17;2.60;;;2.00;;
23658;SDS011;12006;42.666;23.326;2024-03-22T09:41:43;2.83;;;2.33;;
23658;SDS011;12006;42.666;23.326;2024-03-22T09:44:11;3.53;;;2.10;;
23658;SDS011;12006;42.666;23.326;2024-03-22T09:46:37;4.87;;;3.47;;
23658;SDS011;12006;42.666;23.326;2024-03-22T09:49:03;5.30;;;3.47;;
23658;SDS011;12006;42.666;23.326;2024-03-22T09:51:28;3.60;;;2.83;;
23658;SDS011;12006;42.666;23.326;2024-03-22T09:53:54;3.80;;;2.63;;
23658;SDS011;12006;42.666;23.326;2024-03-22T09:56:20;3.70;;;2.50;;
23658;SDS011;12006;42.666;23.326;2024-03-22T09:58:46;3.40;;;2.57;;
23658;SDS011;12006;42.666;23.326;2024-03-22T10:01:11;3.43;;;2.33;;
23658;SDS011;12006;42.666;23.326;2024-03-22T10:03:37;2.50;;;2.30;;
23658;SDS011;12006;42.666;23.326;2024-03-22T10:06:02;3.90;;;2.77;;
23658;SDS011;12006;42.666;23.326;2024-03-22T10:08:28;3.57;;;2.70;;
23658;SDS011;12006;42.666;23.326;2024-03-22T10:10:53;2.40;;;2.10;;
23658;SDS011;12006;42.666;23.326;2024-03-22T10:13:18;3.40;;;2.97;;
23658;SDS011;12006;42.666;23.326;2024-03-22T10:15:43;3.70;;;3.07;;
23658;SDS011;12006;42.666;23.326;2024-03-22T10:18:09;3.43;;;2.67;;
23658;SDS011;12006;42.666;23.326;2024-03-22T10:20:34;2.70;;;2.50;;
23658;SDS011;12006;42.666;23.326;2024-03-22T10:23:00;3.60;;;2.67;;
23658;SDS011;12006;42.666;23.326;2024-03-22T10:25:26;3.47;;;2.37;;
23658;SDS011;12006;42.666;23.326;2024-03-22T10:27:53;2.80;;;2.20;;
23658;SDS011;12006;42.666;23.326;2024-03-22T10:30:18;2.65;;;2.13;;
23658;SDS011;12006;42.666;23.326;2024-03-22T10:32:43;3.20;;;2.30;;
23658;SDS011;12006;42.666;23.326;2024-03-22T10:35:11;2.60;;;2.30;;
23658;SDS011;12006;42.666;23.326;2024-03-22T10:37:36;3.27;;;2.27;;
23658;SDS011;12006;42.666;23.326;2024-03-22T10:40:02;3.10;;;2.20;;
23658;SDS011;12006;42.666;23.326;2024-03-22T10:42:37;2.70;;;2.13;;
23658;SDS011;12006;42.666;23.326;2024-03-22T10:45:03;2.60;;;2.27;;
23658;SDS011;12006;42.666;23.326;2024-03-22T10:47:29;2.97;;;2.20;;
23658;SDS011;12006;42.666;23.326;2024-03-22T10:49:56;2.93;;;2.23;;
23658;SDS011;12006;42.666;23.326;2024-03-22T10:52:23;2.73;;;2.10;;
23658;SDS011;12006;42.666;23.326;2024-03-22T10:54:49;3.00;;;2.70;;
23658;SDS011;12006;42.666;23.326;2024-03-22T10:57:15;3.43;;;2.60;;
23658;SDS011;12006;42.666;23.326;2024-03-22T10:59:41;3.10;;;2.50;;
23658;SDS011;12006;42.666;23.326;2024-03-22T11:02:10;2.80;;;2.20;;
23658;SDS011;12006;42.666;23.326;2024-03-22T11:04:35;2.83;;;2.50;;
23658;SDS011;12006;42.666;23.326;2024-03-22T11:07:00;4.90;;;4.17;;
23658;SDS011;12006;42.666;23.326;2024-03-22T11:09:27;4.63;;;2.73;;
23658;SDS011;12006;42.666;23.326;2024-03-22T11:11:53;3.87;;;3.00;;
23658;SDS011;12006;42.666;23.326;2024-03-22T11:14:18;3.37;;;2.40;;
23658;SDS011;12006;42.666;23.326;2024-03-22T11:16:45;2.87;;;2.60;;
23658;SDS011;12006;42.666;23.326;2024-03-22T11:19:10;3.50;;;2.90;;
23658;SDS011;12006;42.666;23.326;2024-03-22T11:21:35;3.72;;;2.38;;
23658;SDS011;12006;42.666;23.326;2024-03-22T11:24:01;2.73;;;2.50;;
23658;SDS011;12006;42.666;23.326;2024-03-22T11:26:26;3.77;;;3.00;;
23658;SDS011;12006;42.666;23.326;2024-03-22T11:28:52;2.70;;;2.17;;
23658;SDS011;12006;42.666;23.326;2024-03-22T11:31:17;2.43;;;2.20;;
23658;SDS011;12006;42.666;23.326;2024-03-22T11:33:43;3.47;;;2.43;;
23658;SDS011;12006;42.666;23.326;2024-03-22T11:36:09;3.33;;;2.77;;
23658;SDS011;12006;42.666;23.326;2024-03-22T11:38:34;2.87;;;2.30;;
23658;SDS011;12006;42.666;23.326;2024-03-22T11:41:00;2.77;;;2.10;;
23658;SDS011;12006;42.666;23.326;2024-03-22T11:43:27;3.75;;;2.17;;
23658;SDS011;12006;42.666;23.326;2024-03-22T11:45:53;2.30;;;2.00;;
23658;SDS011;12006;42.666;23.326;2024-03-22T11:48:18;5.23;;;3.27;;
23658;SDS011;12006;42.666;23.326;2024-03-22T11:50:45;3.03;;;2.23;;
23658;SDS011;12006;42.666;23.326;2024-03-22T11:53:10;2.47;;;2.08;;
23658;SDS011;12006;42.666;23.326;2024-03-22T11:55:35;3.45;;;2.10;;
23658;SDS011;12006;42.666;23.326;2024-03-22T11:58:01;2.53;;;2.33;;
23658;SDS011;12006;42.666;23.326;2024-03-22T12:00:26;2.50;;;2.10;;
23658;SDS011;12006;42.666;23.326;2024-03-22T12:02:52;2.30;;;2.10;;
23658;SDS011;12006;42.666;23.326;2024-03-22T12:05:18;3.25;;;2.60;;
23658;SDS011;12006;42.666;23.326;2024-03-22T12:07:43;2.50;;;2.28;;
23658;SDS011;12006;42.666;23.326;2024-03-22T12:10:09;3.07;;;2.20;;
23658;SDS011;12006;42.666;23.326;2024-03-22T12:12:34;2.67;;;2.10;;
23658;SDS011;12006;42.666;23.326;2024-03-22T12:14:59;2.33;;;2.10;;
23658;SDS011;12006;42.666;23.326;2024-03-22T12:17:25;3.10;;;2.30;;
23658;SDS011;12006;42.666;23.326;2024-03-22T12:19:50;2.20;;;1.88;;
23658;SDS011;12006;42.666;23.326;2024-03-22T12:22:15;3.50;;;1.90;;
23658;SDS011;12006;42.666;23.326;2024-03-22T12:24:40;2.30;;;2.10;;
23658;SDS011;12006;42.666;23.326;2024-03-22T12:27:07;5.33;;;4.00;;
23658;SDS011;12006;42.666;23.326;2024-03-22T12:29:32;3.97;;;3.00;;
23658;SDS011;12006;42.666;23.326;2024-03-22T12:31:58;5.67;;;2.63;;
23658;SDS011;12006;42.666;23.326;2024-03-22T12:34:26;2.60;;;2.20;;
23658;SDS011;12006;42.666;23.326;2024-03-22T12:36:51;4.00;;;2.43;;
23658;SDS011;12006;42.666;23.326;2024-03-22T12:39:17;2.20;;;2.00;;
23658;SDS011;12006;42.666;23.326;2024-03-22T12:41:42;2.95;;;2.55;;
23658;SDS011;12006;42.666;23.326;2024-03-22T12:44:07;4.00;;;2.60;;
23658;SDS011;12006;42.666;23.326;2024-03-22T12:46:32;2.53;;;2.20;;
23658;SDS011;12006;42.666;23.326;2024-03-22T12:48:57;4.17;;;2.13;;
23658;SDS011;12006;42.666;23.326;2024-03-22T12:51:23;2.80;;;1.83;;
23658;SDS011;12006;42.666;23.326;2024-03-22T12:53:49;3.13;;;2.10;;
23658;SDS011;12006;42.666;23.326;2024-03-22T12:56:14;4.03;;;2.15;;
23658;SDS011;12006;42.666;23.326;2024-03-22T12:58:39;2.97;;;2.45;;
23658;SDS011;12006;42.666;23.326;2024-03-22T13:01:05;3.35;;;2.25;;
23658;SDS011;12006;42.666;23.326;2024-03-22T13:03:31;2.60;;;2.10;;
23658;SDS011;12006;42.666;23.326;2024-03-22T13:05:57;2.97;;;2.13;;
23658;SDS011;12006;42.666;23.326;2024-03-22T13:08:22;3.13;;;2.83;;
23658;SDS011;12006;42.666;23.326;2024-03-22T13:10:47;4.53;;;2.97;;
23658;SDS011;12006;42.666;23.326;2024-03-22T13:13:13;4.07;;;2.37;;
23658;SDS011;12006;42.666;23.326;2024-03-22T13:15:41;4.47;;;2.30;;
23658;SDS011;12006;42.666;23.326;2024-03-22T13:18:06;2.90;;;2.17;;
23658;SDS011;12006;42.666;23.326;2024-03-22T13:20:32;3.30;;;2.40;;
23658;SDS011;12006;42.666;23.326;2024-03-22T13:22:57;3.17;;;2.50;;
23658;SDS011;12006;42.666;23.326;2024-03-22T13:25:23;2.90;;;2.30;;
23658;SDS011;12006;42.666;23.326;2024-03-22T13:27:48;2.57;;;2.37;;
23658;SDS011;12006;42.666;23.326;2024-03-22T13:30:13;2.37;;;2.17;;
23658;SDS011;12006;42.666;23.326;2024-03-22T13:32:39;3.13;;;2.30;;
23658;SDS011;12006;42.666;23.326;2024-03-22T13:35:05;4.57;;;4.00;;
23658;SDS011;12006;42.666;23.326;2024-03-22T13:37:30;2.67;;;2.33;;
23658;SDS011;12006;42.666;23.326;2024-03-22T13:39:55;2.47;;;2.13;;
23658;SDS011;12006;42.666;23.326;2024-03-22T13:42:21;3.10;;;2.80;;
23658;SDS011;12006;42.666;23.326;2024-03-22T13:44:46;2.97;;;2.67;;
23658;SDS011;12006;42.666;23.326;2024-03-22T13:47:11;2.53;;;2.33;;
23658;SDS011;12006;42.666;23.326;2024-03-22T13:49:37;3.03;;;2.30;;
23658;SDS011;12006;42.666;23.326;2024-03-22T13:52:06;2.90;;;2.00;;
23658;SDS011;12006;42.666;23.326;2024-03-22T13:54:31;3.27;;;2.30;;
23658;SDS011;12006;42.666;23.326;2024-03-22T13:56:56;4.87;;;2.53;;
23658;SDS011;12006;42.666;23.326;2024-03-22T13:59:21;2.90;;;2.20;;
23658;SDS011;12006;42.666;23.326;2024-03-22T14:01:47;3.53;;;2.77;;
23658;SDS011;12006;42.666;23.326;2024-03-22T14:04:12;6.37;;;2.80;;
23658;SDS011;12006;42.666;23.326;2024-03-22T14:06:38;2.93;;;2.40;;
23658;SDS011;12006;42.666;23.326;2024-03-22T14:09:03;3.30;;;3.00;;
23658;SDS011;12006;42.666;23.326;2024-03-22T14:11:29;4.73;;;2.50;;
23658;SDS011;12006;42.666;23.326;2024-03-22T14:13:56;4.07;;;2.40;;
23658;SDS011;12006;42.666;23.326;2024-03-22T14:16:21;2.93;;;2.40;;
23658;SDS011;12006;42.666;23.326;2024-03-22T14:18:46;4.37;;;2.97;;
23658;SDS011;12006;42.666;23.326;2024-03-22T14:21:13;4.27;;;2.50;;